createdAt,value
2022-10-14T00:01:05.642Z,76487.75
2022-10-14T00:05:07.974Z,76493.97
2022-10-14T00:09:10.546Z,76491.91
2022-10-14T00:13:12.019Z,76489.81
2022-10-14T00:17:14.970Z,76491.91
2022-10-14T00:21:17.507Z,76483.59
2022-10-14T00:25:18.910Z,76489.81
2022-10-14T00:29:20.623Z,76491.91
2022-10-14T00:33:24.196Z,76471.13
2022-10-14T00:37:25.738Z,76452.44
2022-10-14T00:41:30.135Z,76466.97
2022-10-14T00:45:31.680Z,76471.13
2022-10-14T00:49:38.850Z,76462.81
2022-10-14T00:53:43.115Z,76464.91
2022-10-14T00:57:45.677Z,76464.91
2022-10-14T01:01:47.298Z,76460.75
2022-10-14T01:06:00.119Z,76440.00
2022-10-14T01:10:09.534Z,76425.44
2022-10-14T01:14:19.102Z,76425.44
2022-10-14T01:18:32.146Z,76437.91
2022-10-14T01:22:38.202Z,76446.22
2022-10-14T01:27:14.540Z,76435.84
2022-10-14T01:31:20.139Z,76440.00
2022-10-14T01:35:28.959Z,76427.53
2022-10-14T01:39:35.783Z,76413.00
2022-10-14T01:43:39.736Z,76392.22
2022-10-14T01:47:44.225Z,76402.63
2022-10-14T01:51:49.535Z,76386.00
2022-10-14T01:55:54.843Z,76402.63
2022-10-14T01:59:58.064Z,76415.06
2022-10-14T02:04:00.935Z,76398.47
2022-10-14T02:08:10.986Z,76406.75
2022-10-14T02:12:26.779Z,76404.69
2022-10-14T02:16:36.862Z,76404.69
2022-10-14T02:20:47.243Z,76390.16
2022-10-14T02:24:52.943Z,76375.63
2022-10-14T02:28:56.890Z,76377.69
2022-10-14T02:33:01.050Z,76379.78
2022-10-14T02:37:05.143Z,76381.84
2022-10-14T02:41:12.008Z,76377.69
2022-10-14T02:45:15.862Z,76383.94
2022-10-14T02:49:17.971Z,76381.84
2022-10-14T02:53:20.938Z,76377.69
2022-10-14T02:57:22.604Z,76373.53
2022-10-14T03:01:24.051Z,76369.41
2022-10-14T03:05:25.895Z,76359.00
2022-10-14T03:09:28.713Z,76356.94
2022-10-14T03:13:30.422Z,76346.56
2022-10-14T03:17:31.870Z,76340.31
2022-10-14T03:21:33.446Z,76340.31
2022-10-14T03:25:36.625Z,76348.63
2022-10-14T03:29:38.147Z,76352.78
2022-10-14T03:33:39.812Z,76356.94
2022-10-14T03:37:41.281Z,76354.84
2022-10-14T03:41:44.175Z,76346.56
2022-10-14T03:45:45.878Z,76340.31
2022-10-14T03:49:47.343Z,76327.88
2022-10-14T03:53:48.940Z,76311.25
2022-10-14T03:57:51.927Z,76317.50
2022-10-14T04:01:53.549Z,76313.34
2022-10-14T04:05:55.415Z,76325.78
2022-10-14T04:09:57.026Z,76329.94
2022-10-14T04:14:13.319Z,76344.47
2022-10-14T04:18:15.036Z,76348.63
2022-10-14T04:22:16.763Z,76348.63
2022-10-14T04:26:21.334Z,76348.63
2022-10-14T04:30:24.143Z,76338.25
2022-10-14T04:34:25.759Z,76334.09
2022-10-14T04:38:28.098Z,76332.03
2022-10-14T04:42:29.523Z,76300.88
2022-10-14T04:46:32.526Z,76302.94
2022-10-14T04:50:34.127Z,76288.41
2022-10-14T04:54:35.535Z,76290.50
2022-10-14T04:58:37.152Z,76284.28
2022-10-14T05:02:39.940Z,76253.13
2022-10-14T05:06:41.444Z,76261.44
2022-10-14T05:10:43.650Z,76255.19
2022-10-14T05:14:45.380Z,76224.06
2022-10-14T05:18:48.213Z,76224.06
2022-10-14T05:22:49.805Z,76228.22
2022-10-14T05:26:51.377Z,76248.97
2022-10-14T05:30:52.878Z,76240.66
2022-10-14T05:34:55.822Z,76248.97
2022-10-14T05:38:57.394Z,76244.81
2022-10-14T05:42:59.214Z,76244.81
2022-10-14T05:47:00.671Z,76230.28
2022-10-14T05:51:03.837Z,76228.22
2022-10-14T05:55:06.787Z,76244.81
2022-10-14T05:59:09.354Z,76246.91
2022-10-14T06:03:12.172Z,76248.97
2022-10-14T06:07:15.126Z,76226.13
2022-10-14T06:11:16.574Z,76211.59
2022-10-14T06:15:18.247Z,76228.22
2022-10-14T06:19:20.002Z,76215.75
2022-10-14T06:23:22.985Z,76228.22
2022-10-14T06:27:24.409Z,76234.44
2022-10-14T06:31:29.932Z,76207.44
2022-10-14T06:35:33.870Z,76221.97
2022-10-14T06:39:36.644Z,76207.44
2022-10-14T06:43:38.225Z,76203.28
2022-10-14T06:47:39.881Z,76219.91
2022-10-14T06:51:41.473Z,76213.69
2022-10-14T06:55:44.503Z,76219.91
2022-10-14T06:59:46.102Z,76211.59
2022-10-14T07:03:48.483Z,76217.84
2022-10-14T07:07:52.796Z,76203.28
2022-10-14T07:11:55.687Z,76203.28
2022-10-14T07:15:57.174Z,76209.53
2022-10-14T07:19:58.838Z,76205.38
2022-10-14T07:24:00.469Z,76209.53
2022-10-14T07:28:04.273Z,76203.28
2022-10-14T07:32:05.913Z,76199.16
2022-10-14T07:36:10.082Z,76192.91
2022-10-14T07:40:12.446Z,76180.47
2022-10-14T07:44:15.442Z,76170.06
2022-10-14T07:48:27.130Z,76170.06
2022-10-14T07:52:34.501Z,76161.78
2022-10-14T07:56:36.136Z,76161.78
2022-10-14T08:00:39.043Z,76147.25
2022-10-14T08:04:40.689Z,76132.72
2022-10-14T08:08:42.283Z,76122.31
2022-10-14T08:12:43.926Z,76136.84
2022-10-14T08:16:46.711Z,76128.56
2022-10-14T08:20:48.324Z,76120.25
2022-10-14T08:24:49.912Z,76101.56
2022-10-14T08:28:51.544Z,76089.09
2022-10-14T08:32:54.748Z,76076.66
2022-10-14T08:36:56.151Z,76078.72
2022-10-14T08:41:07.380Z,76076.66
2022-10-14T08:45:14.960Z,76053.81
2022-10-14T08:49:23.939Z,76045.50
2022-10-14T08:53:28.829Z,76030.97
2022-10-14T08:57:36.085Z,76022.69
2022-10-14T09:01:48.368Z,76010.22
2022-10-14T09:05:57.711Z,76012.28
2022-10-14T09:10:05.690Z,76001.91
2022-10-14T09:14:09.655Z,75987.38
2022-10-14T09:18:22.026Z,75993.63
2022-10-14T09:22:27.191Z,75979.09
2022-10-14T09:26:39.044Z,75966.63
2022-10-14T09:30:40.502Z,75966.63
2022-10-14T09:34:48.706Z,75952.09
2022-10-14T09:38:53.758Z,75950.00
2022-10-14T09:42:58.824Z,75923.03
2022-10-14T09:47:08.124Z,75929.25
2022-10-14T09:51:20.268Z,75920.94
2022-10-14T09:55:23.568Z,75912.66
2022-10-14T09:59:25.277Z,75902.28
2022-10-14T10:03:29.043Z,75896.03
2022-10-14T10:07:32.397Z,75906.41
2022-10-14T10:11:36.847Z,75866.97
2022-10-14T10:15:38.556Z,75873.19
2022-10-14T10:19:41.659Z,75885.66
2022-10-14T10:23:51.924Z,75887.72
2022-10-14T10:27:58.325Z,75887.72
2022-10-14T10:32:11.735Z,75883.59
2022-10-14T10:36:20.910Z,75887.72
2022-10-14T10:40:31.381Z,75891.88
2022-10-14T10:45:06.528Z,75883.59
2022-10-14T10:49:19.178Z,75873.19
2022-10-14T10:53:46.279Z,75875.28
2022-10-14T10:57:58.926Z,75871.13
2022-10-14T11:02:24.583Z,75850.38
2022-10-14T11:06:33.859Z,75831.69
2022-10-14T11:10:43.598Z,75837.91
2022-10-14T11:15:02.018Z,75856.59
2022-10-14T11:19:14.689Z,75835.84
2022-10-14T11:23:34.760Z,75833.75
2022-10-14T11:27:41.324Z,75837.91
2022-10-14T11:31:53.586Z,75846.22
2022-10-14T11:36:12.441Z,75840.00
2022-10-14T11:40:21.300Z,75829.59
2022-10-14T11:44:32.232Z,75827.53
2022-10-14T11:48:39.632Z,75821.31
2022-10-14T11:52:48.486Z,75804.69
2022-10-14T11:56:54.716Z,75788.09
2022-10-14T12:01:00.016Z,75792.25
2022-10-14T12:05:09.713Z,75779.78
2022-10-14T12:09:20.026Z,75790.16
2022-10-14T12:13:28.437Z,75763.19
2022-10-14T12:17:35.762Z,75775.63
2022-10-14T12:21:48.193Z,75783.94
2022-10-14T12:25:58.451Z,75783.94
2022-10-14T12:30:00.027Z,75763.19
2022-10-14T12:34:27.967Z,75752.81
2022-10-14T12:38:30.286Z,75759.03
2022-10-14T12:42:35.675Z,75746.56
2022-10-14T12:46:43.765Z,75767.34
2022-10-14T12:50:47.168Z,75742.41
2022-10-14T12:54:49.394Z,75719.59
2022-10-14T12:58:57.421Z,75700.91
2022-10-14T13:03:01.187Z,75673.91
2022-10-14T13:07:40.731Z,75678.06
2022-10-14T13:11:44.585Z,75665.63
2022-10-14T13:15:51.315Z,75653.16
2022-10-14T13:19:52.783Z,75671.84
2022-10-14T13:23:55.114Z,75651.09
2022-10-14T13:28:04.418Z,75607.50
2022-10-14T13:32:23.779Z,75617.88
2022-10-14T13:36:35.692Z,75597.09
2022-10-14T13:40:43.128Z,75601.25
2022-10-14T13:44:44.627Z,75605.41
2022-10-14T13:48:50.222Z,75592.97
2022-10-14T13:52:57.054Z,75592.97
2022-10-14T13:57:34.729Z,75588.81
2022-10-14T14:01:24.984Z,75595.03
2022-10-14T14:05:32.054Z,75597.09
2022-10-14T14:09:33.877Z,75574.28
2022-10-14T14:13:50.844Z,75563.91
2022-10-14T14:17:54.786Z,75580.50
2022-10-14T14:22:15.649Z,75578.44
2022-10-14T14:26:19.522Z,75592.97
2022-10-14T14:30:26.262Z,75590.88
2022-10-14T14:34:28.022Z,75590.88
2022-10-14T14:42:54.893Z,75584.66
2022-10-14T14:46:58.353Z,75582.56
2022-10-14T14:51:01.301Z,75584.66
2022-10-14T14:55:04.533Z,75584.66
2022-10-14T14:59:08.798Z,75586.72
2022-10-14T15:03:10.399Z,75565.97
2022-10-14T15:07:21.017Z,75565.97
2022-10-14T15:11:24.751Z,75539.00
2022-10-14T15:15:31.648Z,75549.38
2022-10-14T15:19:38.406Z,75551.44
2022-10-14T15:23:43.569Z,75565.97
2022-10-14T15:27:51.626Z,75572.19
2022-10-14T15:32:06.770Z,75580.50
2022-10-14T15:36:11.673Z,75586.72
2022-10-14T15:40:16.147Z,75595.03
2022-10-14T15:44:19.081Z,75601.25
2022-10-14T15:48:20.936Z,75605.41
2022-10-14T15:52:26.009Z,75613.72
2022-10-14T15:56:29.730Z,75619.94
2022-10-14T16:00:33.601Z,75619.94
2022-10-14T16:04:35.206Z,75624.09
2022-10-14T16:08:37.452Z,75626.16
2022-10-14T16:12:39.152Z,75619.94
2022-10-14T16:16:46.027Z,75632.41
2022-10-14T16:20:47.673Z,75638.63
2022-10-14T16:24:49.429Z,75649.00
2022-10-14T16:28:51.471Z,75655.22
2022-10-14T16:32:54.681Z,75665.63
2022-10-14T16:36:56.226Z,75671.84
2022-10-14T16:40:59.368Z,75678.06
2022-10-14T16:45:00.979Z,75682.22
2022-10-14T16:49:03.927Z,75692.59
2022-10-14T16:53:06.053Z,75682.22
2022-10-14T16:57:08.480Z,75713.34
2022-10-14T17:01:10.290Z,75711.28
2022-10-14T17:05:14.025Z,75729.97
2022-10-14T17:09:17.296Z,75734.13
2022-10-14T17:13:18.732Z,75746.56
2022-10-14T17:17:20.549Z,75744.50
2022-10-14T17:21:23.521Z,75748.66
2022-10-14T17:25:25.209Z,75744.50
2022-10-14T17:29:26.712Z,75734.13
2022-10-14T17:33:28.225Z,75744.50
2022-10-14T17:37:31.312Z,75729.97
2022-10-14T17:41:33.165Z,75738.28
2022-10-14T17:45:34.668Z,75744.50
2022-10-14T17:49:36.460Z,75750.72
2022-10-14T17:53:40.157Z,75761.09
2022-10-14T17:57:41.846Z,75763.19
2022-10-14T18:02:02.218Z,75761.09
2022-10-14T18:06:09.252Z,75765.25
2022-10-14T18:10:12.293Z,75769.41
2022-10-14T18:14:14.339Z,75767.34
2022-10-14T18:18:15.944Z,75771.47
2022-10-14T18:22:17.785Z,75773.56
2022-10-14T18:26:21.733Z,75763.19
2022-10-14T18:30:23.270Z,75773.56
2022-10-14T18:34:24.803Z,75775.63
2022-10-14T18:38:26.403Z,75767.34
2022-10-14T18:42:29.376Z,75763.19
2022-10-14T18:46:32.854Z,75754.88
2022-10-14T18:50:34.383Z,75756.94
2022-10-14T18:54:35.835Z,75754.88
2022-10-14T18:58:38.906Z,75750.72
2022-10-14T19:02:40.407Z,75754.88
2022-10-14T19:06:42.415Z,75750.72
2022-10-14T19:10:43.938Z,75759.03
2022-10-14T19:14:46.753Z,75756.94
2022-10-14T19:18:52.178Z,75759.03
2022-10-14T19:22:56.647Z,75759.03
2022-10-14T19:26:59.629Z,75765.25
2022-10-14T19:31:06.080Z,75754.88
2022-10-14T19:35:07.873Z,75750.72
2022-10-14T19:39:12.416Z,75752.81
2022-10-14T19:43:14.040Z,75754.88
2022-10-14T19:47:16.900Z,75740.34
2022-10-14T19:51:18.443Z,75725.81
2022-10-14T19:55:20.194Z,75717.50
2022-10-14T19:59:21.681Z,75702.97
2022-10-14T20:03:24.725Z,75709.19
2022-10-14T20:07:26.380Z,75719.59
2022-10-14T20:11:28.080Z,75729.97
2022-10-14T20:15:29.556Z,75738.28
2022-10-14T20:19:32.355Z,75738.28
2022-10-14T20:23:34.580Z,75727.88
2022-10-14T20:27:36.043Z,75727.88
2022-10-14T20:31:37.619Z,75725.81
2022-10-14T20:35:40.542Z,75725.81
2022-10-14T20:39:42.142Z,75719.59
2022-10-14T20:43:44.355Z,75717.50
2022-10-14T20:47:53.294Z,75719.59
2022-10-14T20:51:56.612Z,75721.66
2022-10-14T20:56:01.207Z,75723.75
2022-10-14T21:00:03.908Z,75692.59
2022-10-14T21:04:07.536Z,75692.59
2022-10-14T21:08:10.486Z,75705.06
2022-10-14T21:12:12.243Z,75705.06
2022-10-14T21:16:16.076Z,75715.44
2022-10-14T21:20:18.636Z,75721.66
2022-10-14T21:24:22.351Z,75732.03
2022-10-14T21:28:23.810Z,75727.88
2022-10-14T21:32:25.784Z,75734.13
2022-10-14T21:36:27.894Z,75742.41
2022-10-14T21:40:30.759Z,75732.03
2022-10-14T21:44:32.250Z,75729.97
2022-10-14T21:48:34.002Z,75744.50
2022-10-14T21:52:35.443Z,75727.88
2022-10-14T21:56:38.692Z,75725.81
2022-10-14T22:00:40.099Z,75719.59
2022-10-14T22:04:41.700Z,75725.81
2022-10-14T22:08:45.243Z,75734.13
2022-10-14T22:12:48.034Z,75748.66
2022-10-14T22:16:49.698Z,75746.56
2022-10-14T22:21:00.535Z,75756.94
2022-10-14T22:25:02.103Z,75761.09
2022-10-14T22:29:06.694Z,75750.72
2022-10-14T22:33:08.155Z,75754.88
2022-10-14T22:37:09.730Z,75748.66
2022-10-14T22:41:12.626Z,75748.66
2022-10-14T22:45:15.831Z,75746.56
2022-10-14T22:49:17.458Z,75765.25
2022-10-14T22:53:18.866Z,75767.34
2022-10-14T22:57:20.306Z,75775.63
2022-10-14T23:01:23.988Z,75788.09
2022-10-14T23:05:25.406Z,75771.47
2022-10-14T23:09:27.097Z,75781.88
2022-10-14T23:13:28.827Z,75790.16
2022-10-14T23:17:31.591Z,75775.63
2022-10-14T23:21:34.750Z,75781.88
2022-10-14T23:25:40.111Z,75783.94
2022-10-14T23:29:41.676Z,75777.72
2022-10-14T23:33:44.891Z,75788.09
2022-10-14T23:37:46.355Z,75794.31
2022-10-14T23:41:47.935Z,75804.69
2022-10-14T23:45:49.410Z,75792.25
2022-10-14T23:49:52.319Z,75788.09
2022-10-14T23:53:53.775Z,75792.25
2022-10-14T23:57:55.347Z,75796.41
